Flight Briefing for CPX322

Departure Arrival
Lehigh Valley International Airport (KABE)
Click to view FAA NOTAMS
Chicago/Rockford International Airport (KRFD)
Click to view FAA NOTAMS
Departure Time Arrival Time
N/A N/A
Aircraft Distance
B767-300BDSF 623nm
Departure METAR Arrival METAR
KABE 252351Z 00000KT 10SM OVC049 06/M01 A3007 RMK AO2 RAE23 SLP186 P0000 60000 T00561011 10083 20056 50010 KRFD 252354Z 08009KT 10SM FEW250 05/M13 A3034 RMK AO2 SLP280 T00501133 10083 20050 53008
Suggested Route
PSB J60 JOT V171 RFD


View recent IFR Routes data
Notes



Charts and Procedures

Charts for KABE
No chart available
Charts for KRFD
No chart available

Windy.com Weather Map